Aviation Digital Data Service (ADDS)

Output produced by METARs form (1712 UTC 01 October 2016)
found at http://www.aviationweather.gov/adds/metars/
 
KDFW 011453Z 0115/0218 VRB03KT P6SM BKN200 
     FM011600 17005KT P6SM BKN150